Flight Track Log - Related Links

Times and Time Zones

All times are in EDT time to prevent confusion due to time zone crossing. See the N272AY flight status page for this flight to view local times or setup timezone preferences in your user account.

Time Position Orientation Groundspeed Altitude Reporting Facility
EDT Latitude Longitude Course Direction KTS MPH feet Rate Location/Type
Thu 08:18:49 PM 39.8759 -75.2199 75° East 161 185 400  Level FlightAware ADS-B
Thu 08:19:00 PM 39.8780 -75.2098 75° East 160 184 900 2,571 Climbing FlightAware ADS-B
Thu 08:19:03 PM 39.8784 -75.2064 81° East 159 183 1,000 2,571 Climbing FlightAware ADS-B
Thu 08:19:07 PM 39.8788 -75.2024 83° East 159 183 1,200 1,286 Climbing FlightAware ADS-B
Thu 08:19:17 PM 39.8789 -75.1931 89° East 167 192 1,300 960 Climbing FlightAware ADS-B
Thu 08:19:32 PM 39.8787 -75.1771 91° East 179 206 1,600 968 Climbing FlightAware ADS-B
Thu 08:19:48 PM 39.8783 -75.1596 92° East 196 226 1,800 774 Climbing FlightAware ADS-B
Thu 08:20:03 PM 39.8779 -75.1407 92° East 213 245 2,000 750 Climbing FlightAware ADS-B
Thu 08:20:12 PM 39.8779 -75.1289 90° East 230 265 2,100 900 Climbing FlightAware ADS-B
Thu 08:20:23 PM 39.8791 -75.1125 85° East 245 282 2,300 1,111 Climbing FlightAware ADS-B
Thu 08:20:39 PM 39.8789 -75.0889 91° East 257 296 2,600 1,143 Climbing FlightAware ADS-B
Thu 08:20:44 PM 39.8779 -75.0815 100° East 259 298 2,700 1,636 Climbing FlightAware ADS-B
Thu 08:20:50 PM 39.8763 -75.0720 102° East 262 302 2,900 1,875 Climbing FlightAware ADS-B
Thu 08:21:00 PM 39.8727 -75.0569 107° East 266 306 3,200 2,667 Climbing FlightAware ADS-B
Thu 08:21:26 PM 39.8610 -75.0175 111° Southeast 263 303 4,500 2,714 Climbing FlightAware ADS-B
Thu 08:21:42 PM 39.8540 -74.9948 112° Southeast 266 306 5,100 2,357 Climbing FlightAware ADS-B
Thu 08:21:54 PM 39.8486 -74.9752 110° East 272 313 5,600 2,700 Climbing FlightAware ADS-B
Thu 08:22:02 PM 39.8459 -74.9638 107° East 272 313 6,000 2,250 Climbing FlightAware ADS-B
Thu 08:22:18 PM 39.8403 -74.9379 106° East 280 322 6,500 1,935 Climbing FlightAware ADS-B
Thu 08:22:33 PM 39.8350 -74.9123 105° East 289 333 7,000 2,129 Climbing FlightAware ADS-B
Thu 08:22:49 PM 39.8302 -74.8860 103° East 292 336 7,600 2,063 Climbing FlightAware ADS-B
Thu 08:23:05 PM 39.8245 -74.8586 105° East 299 344 8,100 2,182 Climbing FlightAware ADS-B
Thu 08:23:22 PM 39.8178 -74.8286 106° East 302 348 8,800 2,364 Climbing FlightAware ADS-B
Thu 08:23:38 PM 39.8116 -74.8010 106° East 305 351 9,400 2,063 Climbing FlightAware ADS-B
Thu 08:23:54 PM 39.8053 -74.7718 106° East 312 359 9,900 1,500 Climbing FlightAware ADS-B
Thu 08:24:18 PM 39.7963 -74.7269 105° East 334 384 10,400 1,135 Climbing FlightAware ADS-B
Thu 08:24:31 PM 39.7953 -74.6997 93° East 351 404 10,600 955 Climbing FlightAware ADS-B
Thu 08:25:02 PM 39.8006 -74.6328 84° East 383 441 11,100 1,180 Climbing FlightAware ADS-B
Thu 08:25:32 PM 39.8067 -74.5604 84° East 400 460 11,800 1,967 Climbing FlightAware ADS-B
Thu 08:26:03 PM 39.8127 -74.4875 84° East 399 459 13,100 2,204 Climbing FlightAware ADS-B
Thu 08:26:21 PM 39.8160 -74.4455 84° East 404 465 13,600 1,692 Climbing FlightAware ADS-B
Thu 08:26:42 PM 39.8172 -74.3936 88° East 409 471 14,200 1,731 Climbing FlightAware ADS-B
Thu 08:27:13 PM 39.8171 -74.3156 90° East 417 480 15,100 1,684 Climbing FlightAware ADS-B
Thu 08:27:39 PM 39.8178 -74.2495 89° East 426 490 15,800 1,667 Climbing FlightAware ADS-B
Thu 08:27:49 PM 39.8220 -74.2258 77° East 431 496 16,100 2,000 Climbing FlightAware ADS-B
Thu 08:28:00 PM 39.8326 -74.1993 62° Northeast 433 498 16,500 1,867 Climbing FlightAware ADS-B
Thu 08:28:34 PM 39.8740 -74.1295 52° Northeast 437 503 17,500 1,727 Climbing FlightAware ADS-B
Thu 08:29:06 PM 39.9124 -74.0605 54° Northeast 443 510 18,400 1,688 Climbing FlightAware ADS-B
Thu 08:29:38 PM 39.9495 -73.9922 55° Northeast 446 513 19,300 1,594 Climbing FlightAware ADS-B
Thu 08:30:10 PM 39.9886 -73.9199 55° Northeast 449 517 20,100 1,333 Climbing FlightAware ADS-B
Thu 08:30:41 PM 40.0249 -73.8527 55° Northeast 456 525 20,700 1,219 Climbing FlightAware ADS-B
Thu 08:31:14 PM 40.0660 -73.7764 55° Northeast 462 532 21,400 1,313 Climbing FlightAware ADS-B
Thu 08:31:45 PM 40.1045 -73.7046 55° Northeast 467 537 22,100 1,333 Climbing FlightAware ADS-B
Thu 08:32:17 PM 40.1437 -73.6314 55° Northeast 470 541 22,800 1,320 Climbing FlightAware ADS-B
Thu 08:32:35 PM 40.1645 -73.5881 58° Northeast 471 542 23,200 1,355 Climbing FlightAware ADS-B
Thu 08:32:48 PM 40.1766 -73.5548 65° Northeast 470 541 23,500 1,500 Climbing FlightAware ADS-B
Thu 08:33:19 PM 40.2034 -73.4737 67° East 470 541 24,300 1,377 Climbing FlightAware ADS-B
Thu 08:33:49 PM 40.2295 -73.3953 66° East 472 543 24,900 1,200 Climbing FlightAware ADS-B
Thu 08:34:19 PM 40.2559 -73.3158 66° East 474 545 25,500 1,082 Climbing FlightAware ADS-B
Thu 08:34:50 PM 40.2823 -73.2360 67° East 476 548 26,000 984 Climbing FlightAware ADS-B
Thu 08:35:20 PM 40.3087 -73.1561 67° East 480 552 26,500 1,065 Climbing FlightAware ADS-B
Thu 08:35:52 PM 40.3367 -73.0709 67° East 482 555 27,100 985 Climbing FlightAware ADS-B
Thu 08:36:27 PM 40.3681 -72.9747 67° East 486 559 27,600 727 Climbing FlightAware ADS-B
Thu 08:36:58 PM 40.3954 -72.8914 67° East 491 565 27,900 590 Climbing FlightAware ADS-B
Thu 08:37:28 PM 40.4225 -72.8084 67° East 497 572 28,200 700 Climbing FlightAware ADS-B
Thu 08:37:58 PM 40.4460 -72.7340 67° East 498 573 28,600 833 Climbing FlightAware ADS-B
Thu 08:38:04 PM 40.4545 -72.7098 65° Northeast 499 574 28,700 833 Climbing FlightAware ADS-B
Thu 08:38:34 PM 40.4817 -72.6255 67° East 501 577 29,100 762 Climbing FlightAware ADS-B
Thu 08:39:07 PM 40.5116 -72.5327 67° East 504 580 29,500 818 Climbing FlightAware ADS-B
Thu 08:39:40 PM 40.5412 -72.4406 67° East 505 581 30,000 938 Climbing FlightAware ADS-B
Thu 08:40:11 PM 40.5696 -72.3521 67° East 503 579 30,500 984 Climbing FlightAware ADS-B
Thu 08:40:41 PM 40.5968 -72.2668 67° East 501 577 31,000 1,082 Climbing FlightAware ADS-B
Thu 08:41:12 PM 40.6240 -72.1814 67° East 495 570 31,600 1,082 Climbing FlightAware ADS-B
Thu 08:41:42 PM 40.6505 -72.0981 67° East 493 567 32,100 985 Climbing FlightAware ADS-B
Thu 08:42:19 PM 40.6829 -71.9954 67° East 490 564 32,700 783 Climbing FlightAware ADS-B
Thu 08:43:37 PM 40.7499 -71.7822 67° East 487 560 33,600 737 Climbing FlightAware ADS-B
Thu 08:44:13 PM 40.7760 -71.6990 67° East 484 557 34,100 789 Climbing FlightAware ADS-B
Thu 08:44:53 PM 40.8130 -71.5810 67° East 481 554 34,600 635 Climbing FlightAware ADS-B
Thu 08:45:38 PM 40.8510 -71.4580 68° East 482 555 35,000 267 Climbing FlightAware ADS-B
Thu 08:46:23 PM 40.8880 -71.3360 68° East 482 555 35,000  Level FlightAware ADS-B
Thu 08:47:03 PM 40.9220 -71.2260 68° East 481 554 35,000  Level FlightAware ADS-B
Thu 08:47:43 PM 40.9550 -71.1190 68° East 479 551 35,000  Level FlightAware ADS-B
Thu 08:48:28 PM 40.9910 -71.0020 68° East 483 556 35,000  Level FlightAware ADS-B
Thu 08:49:13 PM 41.0290 -70.8850 67° East 482 555 35,000  Level FlightAware ADS-B
Thu 08:50:13 PM 41.1050 -70.7420 55° Northeast 484 557 35,000  Level FlightAware ADS-B
Thu 08:51:03 PM 41.1760 -70.6190 52° Northeast 484 557 35,000  Level FlightAware ADS-B
Thu 08:51:43 PM 41.2280 -70.5300 52° Northeast 484 557 35,000  Level FlightAware ADS-B
Thu 08:52:28 PM 41.2870 -70.4300 52° Northeast 485 558 35,000  Level FlightAware ADS-B
Thu 08:53:18 PM 41.3540 -70.3130 53° Northeast 482 555 35,000  Level FlightAware ADS-B
Thu 08:54:03 PM 41.4220 -70.1910 53° Northeast 481 554 35,000  Level FlightAware ADS-B
Thu 08:54:48 PM 41.4770 -70.0980 52° Northeast 481 554 35,000  Level FlightAware ADS-B
Thu 08:55:28 PM 41.5330 -69.9970 53° Northeast 484 557 35,000  Level FlightAware ADS-B
Thu 08:56:13 PM 41.5940 -69.8900 53° Northeast 489 563 35,000  Level FlightAware ADS-B
Thu 08:56:48 PM 41.6450 -69.7990 53° Northeast 489 563 35,000  Level FlightAware ADS-B
Thu 08:57:33 PM 41.7080 -69.6870 53° Northeast 490 564 35,000  Level FlightAware ADS-B
Thu 08:58:13 PM 41.7610 -69.5920 53° Northeast 490 564 35,000  Level FlightAware ADS-B
Thu 08:58:58 PM 41.8200 -69.4870 53° Northeast 491 565 35,000  Level FlightAware ADS-B
Thu 08:59:38 PM 41.8760 -69.3860 53° Northeast 488 562 35,000  Level FlightAware ADS-B
Thu 09:00:18 PM 41.9270 -69.2930 54° Northeast 483 556 35,000  Level FlightAware ADS-B
Thu 09:01:03 PM 41.9880 -69.1820 53° Northeast 482 555 35,000  Level FlightAware ADS-B
Thu 09:01:43 PM 42.0420 -69.0850 53° Northeast 475 547 35,000  Level FlightAware ADS-B
Thu 09:02:23 PM 42.0900 -68.9980 53° Northeast 474 545 35,000  Level FlightAware ADS-B
Thu 09:03:08 PM 42.1550 -68.8790 54° Northeast 474 545 35,000  Level FlightAware ADS-B
Thu 09:03:43 PM 42.1950 -68.8060 53° Northeast 473 544 35,000  Level FlightAware ADS-B
Thu 09:04:33 PM 42.2660 -68.6760 54° Northeast 477 549 35,000  Level FlightAware ADS-B
Thu 09:05:13 PM 42.3170 -68.5810 54° Northeast 479 551 35,000  Level FlightAware ADS-B
Thu 09:05:58 PM 42.3770 -68.4690 54° Northeast 491 565 35,000  Level FlightAware ADS-B
Thu 09:06:38 PM 42.4260 -68.3790 54° Northeast 491 565 35,000  Level FlightAware ADS-B
Thu 09:07:23 PM 42.4920 -68.2560 54° Northeast 489 563 35,000  Level FlightAware ADS-B
Thu 09:08:18 PM 42.5590 -68.1310 54° Northeast 490 564 35,000  Level FlightAware ADS-B
Thu 09:08:58 PM 42.6040 -68.0460 54° Northeast 490 564 35,000  Level FlightAware ADS-B
Thu 09:09:38 PM 42.6500 -67.9610 54° Northeast 490 564 35,000  Level FlightAware ADS-B
Thu 09:10:18 PM 42.6950 -67.8760 54° Northeast 490 564 35,000  Level FlightAware ADS-B
Thu 09:10:58 PM 42.7400 -67.7920 54° Northeast 490 564 35,000  Level FlightAware ADS-B
Thu 09:11:48 PM 42.7970 -67.6850 54° Northeast 490 564 35,000  Level FlightAware ADS-B
Thu 09:14:23 PM 43.0440 -67.2050 55° Northeast 486 559 35,000  Level FlightAware ADS-B
Thu 09:15:03 PM 43.0950 -67.1080 54° Northeast 487 560 35,000  Level FlightAware ADS-B
Thu 09:15:43 PM 43.1410 -67.0160 56° Northeast 487 560 35,000  Level FlightAware ADS-B
Thu 09:16:23 PM 43.1850 -66.9300 55° Northeast 487 560 35,000  Level FlightAware ADS-B
Thu 09:17:13 PM 43.2400 -66.8230 55° Northeast 487 560 35,000  Level FlightAware ADS-B
Thu 09:17:53 PM 43.3320 -66.6790 49° Northeast 496 571 35,000  Level FlightAware ADS-B
Thu 09:18:33 PM 43.3820 -66.5900 52° Northeast 498 573 35,000  Level FlightAware ADS-B
Thu 09:19:28 PM 43.4640 -66.4430 52° Northeast 497 572 35,000  Level FlightAware ADS-B
Thu 09:20:13 PM 43.5280 -66.3290 52° Northeast 492 566 35,000  Level FlightAware ADS-B
Thu 09:20:53 PM 43.5840 -66.2280 53° Northeast 491 565 35,000  Level FlightAware ADS-B
Thu 09:21:38 PM 43.6460 -66.1160 53° Northeast 490 564 35,000  Level FlightAware ADS-B
Thu 09:22:18 PM 43.7010 -66.0170 52° Northeast 489 563 35,000  Level FlightAware ADS-B
Thu 09:22:58 PM 43.7570 -65.9150 53° Northeast 487 560 35,000  Level FlightAware ADS-B
Thu 09:23:43 PM 43.8180 -65.8040 53° Northeast 486 559 35,000  Level FlightAware ADS-B
Thu 09:24:23 PM 43.8730 -65.7020 53° Northeast 485 558 35,000  Level FlightAware ADS-B
Thu 09:25:08 PM 43.9340 -65.5900 53° Northeast 488 562 35,000  Level FlightAware ADS-B
Thu 09:25:48 PM 43.9880 -65.4910 53° Northeast 489 563 35,000  Level FlightAware ADS-B
Thu 09:26:28 PM 44.0420 -65.3900 53° Northeast 490 564 35,000  Level FlightAware ADS-B
Thu 09:27:13 PM 44.1030 -65.2770 53° Northeast 491 565 35,000  Level FlightAware ADS-B
Thu 09:27:53 PM 44.1580 -65.1740 53° Northeast 489 563 35,000  Level FlightAware ADS-B
Thu 09:28:38 PM 44.2200 -65.0590 53° Northeast 489 563 35,000  Level FlightAware ADS-B
Thu 09:29:33 PM 44.2930 -64.9210 54° Northeast 491 565 35,000  Level FlightAware ADS-B
Thu 09:30:08 PM 44.3410 -64.8310 53° Northeast 490 564 35,000  Level FlightAware ADS-B
Thu 09:30:58 PM 44.4080 -64.7040 54° Northeast 492 566 35,000  Level FlightAware ADS-B
Thu 09:31:53 PM 44.4820 -64.5630 54° Northeast 493 567 35,000  Level FlightAware ADS-B
Thu 09:32:33 PM 44.5360 -64.4590 54° Northeast 493 567 35,000  Level FlightAware ADS-B
Thu 09:33:08 PM 44.5820 -64.3710 54° Northeast 492 566 35,000  Level FlightAware ADS-B
Thu 09:33:58 PM 44.6510 -64.2390 54° Northeast 493 567 35,000  Level FlightAware ADS-B
Thu 09:34:43 PM 44.7100 -64.1240 54° Northeast 492 566 35,000  Level FlightAware ADS-B
Thu 09:35:23 PM 44.7620 -64.0230 54° Northeast 492 566 35,000  Level FlightAware ADS-B
Thu 09:35:58 PM 44.8100 -63.9300 54° Northeast 491 565 35,000  Level FlightAware ADS-B
Thu 09:36:48 PM 44.8740 -63.8040 54° Northeast 492 566 35,000  Level FlightAware ADS-B
Thu 09:37:28 PM 44.9290 -63.6970 54° Northeast 492 566 35,000  Level FlightAware ADS-B
Thu 09:38:13 PM 44.9880 -63.5800 54° Northeast 492 566 35,000  Level FlightAware ADS-B
Thu 09:38:53 PM 45.0410 -63.4770 54° Northeast 492 566 35,000 150 Level FlightAware ADS-B
Thu 09:39:33 PM 45.0920 -63.3750 55° Northeast 493 567 35,200 141 Climbing FlightAware ADS-B
Thu 09:40:18 PM 45.1440 -63.2690 55° Northeast 493 567 35,200  Level FlightAware ADS-B
Thu 09:40:58 PM 45.1890 -63.1790 55° Northeast 493 567 35,200  Level FlightAware ADS-B
Thu 09:41:38 PM 45.2330 -63.0890 55° Northeast 493 567 35,200  Level FlightAware ADS-B
Thu 09:42:18 PM 45.2780 -62.9980 55° Northeast 493 567 35,200  Level FlightAware ADS-B
Thu 09:42:58 PM 45.3220 -62.9080 55° Northeast 493 567 35,200  Level FlightAware ADS-B
Thu 09:43:48 PM 45.3780 -62.7950 55° Northeast 493 567 35,200  Level FlightAware ADS-B
Thu 09:44:28 PM 45.4220 -62.7050 55° Northeast 493 567 35,200  Level FlightAware ADS-B
Thu 09:45:08 PM 45.4670 -62.6140 55° Northeast 493 567 35,200  Level FlightAware ADS-B
Thu 09:45:48 PM 45.5110 -62.5230 55° Northeast 493 567 35,200  Level FlightAware ADS-B
Thu 09:46:28 PM 45.5560 -62.4330 54° Northeast 493 567 35,200  Level FlightAware ADS-B
Thu 09:47:18 PM 45.6110 -62.3190 55° Northeast 493 567 35,200  Level FlightAware ADS-B
Thu 09:47:58 PM 45.6560 -62.2280 55° Northeast 493 567 35,200  Level FlightAware ADS-B
Thu 09:48:38 PM 45.7000 -62.1370 55° Northeast 493 567 35,200  Level FlightAware ADS-B
Thu 09:49:18 PM 45.7450 -62.0460 55° Northeast 493 567 35,200 771 Level FlightAware ADS-B
Thu 09:50:58 PM 45.9580 -61.5970 56° Northeast 479 551 37,000 745 Climbing FlightAware ADS-B
Thu 09:51:43 PM 46.0140 -61.4780 56° Northeast 479 551 37,000  Level FlightAware ADS-B
Thu 09:52:23 PM 46.0650 -61.3700 56° Northeast 482 555 37,000  Level FlightAware ADS-B
Thu 09:53:08 PM 46.1200 -61.2510 56° Northeast 482 555 37,000  Level FlightAware ADS-B
Thu 09:53:48 PM 46.1700 -61.1450 56° Northeast 482 555 37,000  Level FlightAware ADS-B
Thu 09:54:33 PM 46.2260 -61.0230 56° Northeast 481 554 37,000  Level FlightAware ADS-B
Thu 09:55:13 PM 46.2750 -60.9170 56° Northeast 481 554 37,000  Level FlightAware ADS-B
Thu 09:55:58 PM 46.3300 -60.7970 56° Northeast 479 551 37,000  Level FlightAware ADS-B
Thu 09:56:38 PM 46.3790 -60.6920 56° Northeast 479 551 37,000  Level FlightAware ADS-B
Thu 09:57:18 PM 46.4270 -60.5850 57° Northeast 477 549 37,000  Level FlightAware ADS-B
Thu 09:58:03 PM 46.4830 -60.4630 56° Northeast 476 548 37,000  Level FlightAware ADS-B
Thu 09:58:43 PM 46.5320 -60.3550 57° Northeast 475 547 37,000  Level FlightAware ADS-B
Thu 09:59:23 PM 46.5790 -60.2500 57° Northeast 476 548 37,000  Level FlightAware ADS-B
Thu 10:00:08 PM 46.6320 -60.1320 57° Northeast 476 548 37,000  Level FlightAware ADS-B
Thu 10:00:48 PM 46.6810 -60.0240 56° Northeast 478 550 37,000  Level FlightAware ADS-B
Thu 10:01:33 PM 46.7350 -59.9010 57° Northeast 478 550 37,000  Level FlightAware ADS-B
Thu 10:02:13 PM 46.7830 -59.7930 57° Northeast 477 549 37,000  Level FlightAware ADS-B
Thu 10:02:58 PM 46.8360 -59.6740 57° Northeast 477 549 37,000  Level FlightAware ADS-B
Thu 10:03:38 PM 46.8840 -59.5650 57° Northeast 476 548 37,000  Level FlightAware ADS-B
Thu 10:04:23 PM 46.9380 -59.4400 58° Northeast 476 548 37,000  Level FlightAware ADS-B
Thu 10:05:03 PM 46.9860 -59.3320 57° Northeast 476 548 37,000  Level FlightAware ADS-B
Thu 10:05:43 PM 47.0320 -59.2240 58° Northeast 478 550 37,000  Level FlightAware ADS-B
Thu 10:06:28 PM 47.0840 -59.1040 57° Northeast 478 550 37,000  Level FlightAware ADS-B
Thu 10:07:08 PM 47.1310 -58.9950 58° Northeast 477 549 37,000  Level FlightAware ADS-B
Thu 10:07:48 PM 47.1780 -58.8860 58° Northeast 478 550 37,000  Level FlightAware ADS-B
Thu 10:08:33 PM 47.2320 -58.7610 58° Northeast 479 551 37,000  Level FlightAware ADS-B
Thu 10:09:13 PM 47.2790 -58.6490 58° Northeast 481 554 37,000  Level FlightAware ADS-B
Thu 10:09:48 PM 47.3200 -58.5540 57° Northeast 481 554 37,000  Level FlightAware ADS-B
Thu 10:10:33 PM 47.3740 -58.4260 58° Northeast 483 556 37,000  Level FlightAware ADS-B
Thu 10:11:23 PM 47.4270 -58.3010 58° Northeast 483 556 37,000  Level FlightAware ADS-B
Thu 10:12:03 PM 47.4670 -58.2060 58° Northeast 483 556 37,000  Level FlightAware ADS-B
Thu 10:12:43 PM 47.5070 -58.1100 58° Northeast 483 556 37,000  Level FlightAware ADS-B
Thu 10:13:23 PM 47.5480 -58.0150 57° Northeast 483 556 37,000  Level FlightAware ADS-B
Thu 10:14:03 PM 47.5880 -57.9190 58° Northeast 483 556 37,000  Level FlightAware ADS-B
Thu 10:14:43 PM 47.6280 -57.8240 58° Northeast 483 556 37,000  Level FlightAware ADS-B
Thu 10:15:33 PM 47.6780 -57.7040 58° Northeast 483 556 37,000  Level FlightAware ADS-B
Thu 10:16:23 PM 47.7680 -57.4290 64° Northeast 498 573 37,000  Level FlightAware ADS-B
Thu 10:17:08 PM 47.8160 -57.2870 63° Northeast 498 573 37,000  Level FlightAware ADS-B
Thu 10:17:53 PM 47.8670 -57.1400 63° Northeast 497 572 37,000  Level FlightAware ADS-B
Thu 10:18:48 PM 47.9220 -56.9780 63° Northeast 495 570 37,000  Level FlightAware ADS-B
Thu 10:19:33 PM 47.9700 -56.8350 63° Northeast 495 570 37,000  Level FlightAware ADS-B
Thu 10:20:13 PM 48.0090 -56.7210 63° Northeast 493 567 37,000  Level FlightAware ADS-B
Thu 10:20:53 PM 48.0510 -56.5960 63° Northeast 492 566 37,000  Level FlightAware ADS-B
Thu 10:21:28 PM 48.0850 -56.4940 63° Northeast 488 562 37,000  Level FlightAware ADS-B
Thu 10:22:18 PM 48.1340 -56.3490 63° Northeast 490 564 37,000  Level FlightAware ADS-B
Thu 10:22:53 PM 48.1720 -56.2340 64° Northeast 489 563 37,000  Level FlightAware ADS-B
Thu 10:23:43 PM 48.2220 -56.0820 64° Northeast 37,000  Level FlightAware ADS-B
Thu 10:24:18 PM 48.2540 -55.9860 63° Northeast 483 556 37,000  Level FlightAware ADS-B
Thu 10:25:08 PM 48.3060 -55.8280 64° Northeast 485 558 37,000  Level FlightAware ADS-B
Thu 10:25:48 PM 48.3460 -55.7030 64° Northeast 485 558 37,000  Level FlightAware ADS-B
Thu 10:26:33 PM 48.3890 -55.5700 64° Northeast 485 558 37,000  Level FlightAware ADS-B
Thu 10:27:28 PM 48.4450 -55.3980 64° Northeast 485 558 37,000  Level FlightAware ADS-B
Thu 10:28:08 PM 48.4830 -55.2790 64° Northeast 484 557 37,000  Level FlightAware ADS-B
Thu 10:28:48 PM 48.5220 -55.1570 64° Northeast 484 557 37,000  Level FlightAware ADS-B
Thu 10:30:13 PM 48.6000 -54.9120 64° Northeast 484 557 37,000  Level FlightAware ADS-B
Thu 10:31:23 PM 48.6670 -54.6960 65° Northeast 484 557 37,000  Level FlightAware ADS-B
Thu 10:32:33 PM 48.7340 -54.4810 65° Northeast 483 556 37,000  Level FlightAware ADS-B
Thu 10:33:58 PM 48.8150 -54.2180 65° Northeast 480 552 37,000  Level FlightAware ADS-B
Thu 10:35:08 PM 48.8800 -54.0040 65° Northeast 480 552 37,000  Level FlightAware ADS-B
Thu 10:36:18 PM 48.9450 -53.7900 65° Northeast 482 555 37,000  Level FlightAware ADS-B
Thu 10:37:28 PM 49.0110 -53.5710 65° Northeast 481 554 37,000  Level FlightAware ADS-B
Thu 10:38:38 PM 49.0750 -53.3560 65° Northeast 482 555 37,000 86 Level FlightAware ADS-B
Thu 10:39:48 PM 49.1390 -53.1370 66° East 485 558 37,200 387 Climbing FlightAware ADS-B
Thu 10:41:13 PM 49.2160 -52.8720 66° East 481 554 38,000 310 Climbing FlightAware ADS-B
Thu 10:42:23 PM 49.2770 -52.6640 66° East 483 556 38,000  Level FlightAware ADS-B
Thu 10:43:33 PM 49.3370 -52.4520 66° East 480 552 38,000  Level FlightAware ADS-B
Thu 10:44:13 PM 49.3680 -52.3470 66° East 480 552 38,000  Level FlightAware ADS-B
Thu 10:44:58 PM 49.4150 -52.1770 67° East 38,000  Level FlightAware ADS-B
Thu 10:45:38 PM 49.4550 -52.0350 67° East 480 552 38,000  Level FlightAware ADS-B
Thu 10:46:23 PM 49.4930 -51.8970 67° East 479 551 38,000  Level FlightAware ADS-B
Thu 10:47:03 PM 49.5290 -51.7690 67° East 481 554 38,000  Level FlightAware ADS-B
Thu 10:47:43 PM 49.5610 -51.6520 67° East 480 552 38,000  Level FlightAware ADS-B
Thu 10:48:28 PM 49.6010 -51.5080 67° East 478 550 38,000  Level FlightAware ADS-B
Thu 10:49:08 PM 49.6360 -51.3790 67° East 477 549 38,000  Level FlightAware ADS-B
Thu 10:49:48 PM 49.6690 -51.2560 67° East 473 544 38,000  Level FlightAware ADS-B
Thu 10:50:33 PM 49.7070 -51.1160 67° East 468 539 38,000  Level FlightAware ADS-B
Thu 10:51:13 PM 49.7390 -50.9950 68° East 472 543 38,000  Level FlightAware ADS-B
Thu 10:51:53 PM 49.7710 -50.8770 67° East 472 543 38,000  Level FlightAware ADS-B
Thu 10:52:33 PM 49.8000 -50.7710 67° East 472 543 38,000  Level FlightAware ADS-B
Thu 10:53:13 PM 49.8290 -50.6650 67° East 472 543 38,000  Level FlightAware ADS-B
Thu 10:54:03 PM 49.8660 -50.5330 66° East 472 543 38,000  Level FlightAware ADS-B
Thu 10:54:43 PM 49.8950 -50.4270 67° East 472 543 38,000  Level FlightAware ADS-B
Thu 10:55:23 PM 49.9240 -50.3210 67° East 472 543 38,000  Level FlightAware ADS-B
Thu 10:56:03 PM 49.9530 -50.2150 67° East 472 543 38,000  Level FlightAware ADS-B
Thu 10:56:43 PM 49.9820 -50.1080 67° East 472 543 38,000  Level FlightAware ADS-B
Thu 10:57:33 PM 50.0180 -49.9750 67° East 472 543 38,000  Level FlightAware ADS-B
Thu 10:58:13 PM 50.0470 -49.8690 67° East 472 543 38,000  Level FlightAware ADS-B
Thu 10:58:53 PM 50.0760 -49.7620 67° East 472 543 38,000  Level FlightAware ADS-B
Thu 10:59:33 PM 50.1050 -49.6560 67° East 472 543 38,000  Level FlightAware ADS-B
Thu 11:00:13 PM 50.1340 -49.5490 67° East 472 543 38,000  Level FlightAware ADS-B
Thu 11:01:03 PM 50.1700 -49.4160 67° East 472 543 38,000  Level FlightAware ADS-B
Thu 11:01:32 PM 50.1167 -48.8500 67° East 500 575 38,000  Level Gander Center
Thu 11:02:32 PM 50.1500 -48.6667 74° East 500 575 38,000  Level Gander Center
Thu 11:03:32 PM 50.1667 -48.4167 84° East 520 598 38,000  Level Gander Center
Thu 11:04:32 PM 50.2000 -48.2000 76° East 510 587 38,000  Level Gander Center
Thu 11:05:32 PM 50.2333 -48.0167 74° East 510 587 38,000  Level Gander Center
Thu 11:06:32 PM 50.2500 -47.7833 84° East 520 598 38,000  Level Gander Center
Thu 11:08:00 PM 50.3318 -47.4112 79° East  Level FlightAware Approximate
Thu 11:15:00 PM 50.5048 -45.9311 79° East  Level FlightAware Approximate
Thu 11:16:00 PM 50.5280 -45.7188 80° East  Level FlightAware Approximate
Thu 11:17:00 PM 50.5508 -45.5063 80° East  Level FlightAware Approximate
Thu 11:18:00 PM 50.5732 -45.2936 81° East  Level FlightAware Approximate
Thu 11:19:00 PM 50.5952 -45.0807 81° East  Level FlightAware Approximate
Thu 11:20:00 PM 50.6167 -44.8676 81° East  Level FlightAware Approximate
Thu 11:21:00 PM 50.6380 -44.6543 81° East  Level FlightAware Approximate
Thu 11:22:00 PM 50.6588 -44.4408 81° East  Level FlightAware Approximate
Thu 11:23:00 PM 50.6792 -44.2271 81° East  Level FlightAware Approximate
Thu 11:24:00 PM 50.6992 -44.0132 82° East  Level FlightAware Approximate
Thu 11:25:00 PM 50.7188 -43.7992 82° East  Level FlightAware Approximate
Thu 11:26:00 PM 50.7381 -43.5850 82° East  Level FlightAware Approximate
Thu 11:27:00 PM 50.7569 -43.3706 82° East  Level FlightAware Approximate
Thu 11:28:00 PM 50.7754 -43.1560 82° East  Level FlightAware Approximate
Thu 11:29:00 PM 50.7934 -42.9412 82° East  Level FlightAware Approximate
Thu 11:30:00 PM 50.8111 -42.7263 83° East  Level FlightAware Approximate
Thu 11:31:00 PM 50.8284 -42.5113 83° East  Level FlightAware Approximate
Thu 11:32:00 PM 50.8452 -42.2961 83° East  Level FlightAware Approximate
Thu 11:33:00 PM 50.8617 -42.0807 83° East  Level FlightAware Approximate
Thu 11:34:00 PM 50.8778 -41.8651 83° East  Level FlightAware Approximate
Thu 11:35:00 PM 50.8935 -41.6495 83° East  Level FlightAware Approximate
Thu 11:36:00 PM 50.9088 -41.4336 84° East  Level FlightAware Approximate
Thu 11:37:00 PM 50.9237 -41.2177 84° East  Level FlightAware Approximate
Thu 11:38:00 PM 50.9381 -41.0016 84° East  Level FlightAware Approximate
Thu 11:39:00 PM 50.9522 -40.7854 84° East  Level FlightAware Approximate
Thu 11:40:00 PM 50.9659 -40.5690 84° East  Level FlightAware Approximate
Thu 11:41:00 PM 50.9792 -40.3525 84° East  Level FlightAware Approximate
Thu 11:42:00 PM 50.9921 -40.1359 85° East  Level FlightAware Approximate
Thu 11:43:00 PM 51.0115 -39.9209 77° East  Level FlightAware Approximate
Thu 11:44:00 PM 51.0416 -39.7114 77° East  Level FlightAware Approximate
Thu 11:45:00 PM 51.0714 -39.5017 77° East  Level FlightAware Approximate
Thu 11:46:00 PM 51.1007 -39.2916 77° East  Level FlightAware Approximate
Thu 11:47:00 PM 51.1297 -39.0813 78° East  Level FlightAware Approximate
Thu 11:48:00 PM 51.1583 -38.8708 78° East  Level FlightAware Approximate
Thu 11:49:00 PM 51.1866 -38.6600 78° East  Level FlightAware Approximate
Thu 11:50:00 PM 51.2144 -38.4489 78° East  Level FlightAware Approximate
Thu 11:51:00 PM 51.2419 -38.2376 78° East  Level FlightAware Approximate
Thu 11:52:00 PM 51.2690 -38.0260 78° East  Level FlightAware Approximate
Thu 11:53:00 PM 51.2957 -37.8142 79° East  Level FlightAware Approximate
Thu 11:54:00 PM 51.3221 -37.6021 79° East  Level FlightAware Approximate
Thu 11:55:00 PM 51.3480 -37.3898 79° East  Level FlightAware Approximate
Thu 11:56:00 PM 51.3736 -37.1772 79° East  Level FlightAware Approximate
Thu 11:57:00 PM 51.3988 -36.9644 79° East  Level FlightAware Approximate
Thu 11:58:00 PM 51.4236 -36.7514 79° East  Level FlightAware Approximate
Thu 11:59:00 PM 51.4480 -36.5382 80° East  Level FlightAware Approximate
Fri 12:00:00 AM 51.4720 -36.3247 80° East  Level FlightAware Approximate
Fri 12:01:00 AM 51.4956 -36.1110 80° East  Level FlightAware Approximate
Fri 12:02:00 AM 51.5189 -35.8971 80° East  Level FlightAware Approximate
Fri 12:03:00 AM 51.5417 -35.6829 80° East  Level FlightAware Approximate
Fri 12:04:00 AM 51.5642 -35.4686 80° East  Level FlightAware Approximate
Fri 12:05:00 AM 51.5863 -35.2540 81° East  Level FlightAware Approximate
Fri 12:06:00 AM 51.6079 -35.0392 81° East  Level FlightAware Approximate
Fri 12:07:00 AM 51.6292 -34.8243 81° East  Level FlightAware Approximate
Fri 12:08:00 AM 51.6501 -34.6091 81° East  Level FlightAware Approximate
Fri 12:09:00 AM 51.6706 -34.3937 81° East  Level FlightAware Approximate
Fri 12:10:00 AM 51.6907 -34.1782 81° East  Level FlightAware Approximate
Fri 12:11:00 AM 51.7105 -33.9624 82° East  Level FlightAware Approximate
Fri 12:12:00 AM 51.7298 -33.7465 82° East  Level FlightAware Approximate
Fri 12:13:00 AM 51.7487 -33.5304 82° East  Level FlightAware Approximate
Fri 12:14:00 AM 51.7672 -33.3141 82° East  Level FlightAware Approximate
Fri 12:15:00 AM 51.7854 -33.0976 82° East  Level FlightAware Approximate
Fri 12:16:00 AM 51.8031 -32.8810 82° East  Level FlightAware Approximate
Fri 12:17:00 AM 51.8204 -32.6641 83° East  Level FlightAware Approximate
Fri 12:18:00 AM 51.8374 -32.4472 83° East  Level FlightAware Approximate
Fri 12:19:00 AM 51.8539 -32.2300 83° East  Level FlightAware Approximate
Fri 12:20:00 AM 51.8700 -32.0127 83° East  Level FlightAware Approximate
Fri 12:21:00 AM 51.8858 -31.7953 83° East  Level FlightAware Approximate
Fri 12:22:00 AM 51.9011 -31.5777 83° East  Level FlightAware Approximate
Fri 12:23:00 AM 51.9160 -31.3599 84° East  Level FlightAware Approximate
Fri 12:24:00 AM 51.9305 -31.1420 84° East  Level FlightAware Approximate
Fri 12:25:00 AM 51.9447 -30.9240 84° East  Level FlightAware Approximate
Fri 12:26:00 AM 51.9584 -30.7058 84° East  Level FlightAware Approximate
Fri 12:27:00 AM 51.9717 -30.4875 84° East  Level FlightAware Approximate
Fri 12:28:00 AM 51.9846 -30.2691 84° East  Level FlightAware Approximate
Fri 12:29:00 AM 51.9972 -30.0506 85° East  Level FlightAware Approximate
Fri 12:30:00 AM 52.0063 -29.8315 86° East  Level FlightAware Approximate
Fri 12:31:00 AM 52.0142 -29.6123 87° East  Level FlightAware Approximate
Fri 12:32:00 AM 52.0216 -29.3930 87° East  Level FlightAware Approximate
Fri 12:33:00 AM 52.0286 -29.1737 87° East  Level FlightAware Approximate
Fri 12:34:00 AM 52.0353 -28.9542 87° East  Level FlightAware Approximate
Fri 12:35:00 AM 52.0415 -28.7347 87° East  Level FlightAware Approximate
Fri 12:36:00 AM 52.0473 -28.5152 87° East  Level FlightAware Approximate
Fri 12:37:00 AM 52.0527 -28.2956 88° East  Level FlightAware Approximate
Fri 12:38:00 AM 52.0577 -28.0759 88° East  Level FlightAware Approximate
Fri 12:39:00 AM 52.0622 -27.8562 88° East  Level FlightAware Approximate
Fri 12:40:00 AM 52.0664 -27.6365 88° East  Level FlightAware Approximate
Fri 12:41:00 AM 52.0702 -27.4167 88° East  Level FlightAware Approximate
Fri 12:42:00 AM 52.0736 -27.1968 88° East  Level FlightAware Approximate
Fri 12:43:00 AM 52.0765 -26.9775 89° East  Level FlightAware Approximate
Fri 12:44:00 AM 52.0790 -26.7580 89° East  Level FlightAware Approximate
Fri 12:45:00 AM 52.0812 -26.5386 89° East  Level FlightAware Approximate
Fri 12:46:00 AM 52.0829 -26.3191 89° East  Level FlightAware Approximate
Fri 12:47:00 AM 52.0852 -26.0997 89° East  Level FlightAware Approximate
Fri 12:48:00 AM 52.0876 -25.8802 89° East  Level FlightAware Approximate
Fri 12:49:00 AM 52.0896 -25.6607 89° East  Level FlightAware Approximate
Fri 12:50:00 AM 52.0912 -25.4412 89° East  Level FlightAware Approximate
Fri 12:51:00 AM 52.0924 -25.2217 89° East  Level FlightAware Approximate
Fri 12:52:00 AM 52.0931 -25.0021 90° East  Level FlightAware Approximate
Fri 12:53:00 AM 52.0935 -24.7826 90° East  Level FlightAware Approximate
Fri 12:54:00 AM 52.0934 -24.5631 90° East  Level FlightAware Approximate
Fri 12:55:00 AM 52.0930 -24.3435 90° East  Level FlightAware Approximate
Fri 12:56:00 AM 52.0921 -24.1240 90° East  Level FlightAware Approximate
Fri 12:57:00 AM 52.0909 -23.9045 90° East  Level FlightAware Approximate
Fri 12:58:00 AM 52.0892 -23.6850 91° East  Level FlightAware Approximate
Fri 12:59:00 AM 52.0871 -23.4655 91° East  Level FlightAware Approximate
Fri 01:00:00 AM 52.0846 -23.2461 91° East  Level FlightAware Approximate
Fri 01:01:00 AM 52.0817 -23.0266 91° East  Level FlightAware Approximate
Fri 01:02:00 AM 52.0784 -22.8072 91° East  Level FlightAware Approximate
Fri 01:03:00 AM 52.0747 -22.5879 91° East  Level FlightAware Approximate
Fri 01:04:00 AM 52.0705 -22.3685 92° East  Level FlightAware Approximate
Fri 01:05:00 AM 52.0660 -22.1492 92° East  Level FlightAware Approximate
Fri 01:06:00 AM 52.0611 -21.9300 92° East  Level FlightAware Approximate
Fri 01:07:00 AM 52.0557 -21.7108 92° East  Level FlightAware Approximate
Fri 01:08:00 AM 52.0500 -21.4917 92° East  Level FlightAware Approximate
Fri 01:09:00 AM 52.0438 -21.2726 93° East  Level FlightAware Approximate
Fri 01:10:00 AM 52.0373 -21.0536 93° East  Level FlightAware Approximate
Fri 01:11:00 AM 52.0303 -20.8346 93° East  Level FlightAware Approximate
Fri 01:12:00 AM 52.0229 -20.6157 93° East  Level FlightAware Approximate
Fri 01:13:00 AM 52.0151 -20.3969 93° East  Level FlightAware Approximate
Fri 01:14:00 AM 52.0070 -20.1782 93° East  Level FlightAware Approximate
Fri 01:15:00 AM 51.9927 -19.9612 107° East  Level FlightAware Approximate
Fri 01:16:00 AM 51.9532 -19.7519 107° East  Level FlightAware Approximate
Fri 01:17:00 AM 51.9133 -19.5430 107° East  Level FlightAware Approximate
Fri 01:18:00 AM 51.8730 -19.3344 107° East  Level FlightAware Approximate
Fri 01:19:00 AM 51.8323 -19.1262 107° East  Level FlightAware Approximate
Fri 01:20:00 AM 51.7913 -18.9183 108° East  Level FlightAware Approximate
Fri 01:21:00 AM 51.7499 -18.7109 108° East  Level FlightAware Approximate
Fri 01:22:00 AM 51.7082 -18.5038 108° East  Level FlightAware Approximate
Fri 01:23:00 AM 51.6661 -18.2971 108° East  Level FlightAware Approximate
Fri 01:24:00 AM 51.6236 -18.0908 108° East  Level FlightAware Approximate
Fri 01:25:00 AM 51.5807 -17.8849 108° East  Level FlightAware Approximate
Fri 01:26:00 AM 51.5375 -17.6794 109° East  Level FlightAware Approximate
Fri 01:27:00 AM 51.4940 -17.4743 109° East  Level FlightAware Approximate
Fri 01:28:00 AM 51.4501 -17.2695 109° East  Level FlightAware Approximate
Fri 01:29:00 AM 51.4058 -17.0652 109° East  Level FlightAware Approximate
Fri 01:30:00 AM 51.3612 -16.8612 109° East  Level FlightAware Approximate
Fri 01:31:00 AM 51.3162 -16.6577 109° East  Level FlightAware Approximate
Fri 01:32:00 AM 51.2709 -16.4545 110° East  Level FlightAware Approximate
Fri 01:33:00 AM 51.2252 -16.2518 110° East  Level FlightAware Approximate
Fri 01:34:00 AM 51.1792 -16.0495 110° East  Level FlightAware Approximate
Fri 01:35:00 AM 51.1310 -15.8396 110° East  Level FlightAware Approximate
Fri 01:36:00 AM 51.0824 -15.6302 110° East  Level FlightAware Approximate
Fri 01:37:00 AM 51.0353 -15.4291 110° East  Level FlightAware Approximate
Fri 01:38:00 AM 50.9879 -15.2284 111° Southeast  Level FlightAware Approximate
Fri 01:39:00 AM 50.9401 -15.0282 111° Southeast  Level FlightAware Approximate
Fri 01:40:00 AM 50.8933 -14.8275 110° East  Level FlightAware Approximate
Fri 01:41:00 AM 50.8465 -14.6271 110° East  Level FlightAware Approximate
Fri 01:42:00 AM 50.7993 -14.4271 110° East  Level FlightAware Approximate
Fri 01:43:00 AM 50.7517 -14.2275 111° Southeast  Level FlightAware Approximate
Fri 01:44:00 AM 50.7038 -14.0283 111° Southeast  Level FlightAware Approximate
Fri 01:45:00 AM 50.6556 -13.8295 111° Southeast  Level FlightAware Approximate
Fri 01:46:00 AM 50.6071 -13.6311 111° Southeast  Level FlightAware Approximate
Fri 01:47:00 AM 50.5582 -13.4332 111° Southeast  Level FlightAware Approximate
Fri 01:48:00 AM 50.5083 -13.2360 112° Southeast  Level FlightAware Approximate
Fri 01:49:00 AM 50.4574 -13.0397 112° Southeast  Level FlightAware Approximate
Fri 01:50:00 AM 50.4063 -12.8438 112° Southeast  Level FlightAware Approximate
Fri 01:51:00 AM 50.3548 -12.6483 112° Southeast  Level FlightAware Approximate
Fri 01:52:00 AM 50.3029 -12.4533 113° Southeast  Level FlightAware Approximate
Fri 01:52:53 AM 50.0010 -10.2920 113° Southeast 519 597 38,000  Level FlightAware ADS-B
Fri 01:53:00 AM 50.2508 -12.2586 113° Southeast  Level FlightAware Approximate
Fri 01:53:38 AM 49.9640 -10.1350 110° East 520 598 38,000  Level FlightAware ADS-B
Fri 01:54:18 AM 49.9300 -9.9940 110° East 521 600 38,000  Level FlightAware ADS-B
Fri 01:55:03 AM 49.8950 -9.8490 110° East 521 600 38,000  Level FlightAware ADS-B
Fri 01:55:43 AM 49.8580 -9.6960 111° Southeast 519 597 38,000  Level FlightAware ADS-B
Fri 01:56:23 AM 49.8270 -9.5710 111° Southeast 515 593 38,000  Level FlightAware ADS-B
Fri 01:57:03 AM 49.7900 -9.4220 111° Southeast 513 590 38,000  Level FlightAware ADS-B
Fri 01:57:48 AM 49.7510 -9.2630 111° Southeast 510 587 38,000  Level FlightAware ADS-B
Fri 01:58:33 AM 49.7170 -9.1270 111° Southeast 509 586 38,000 -1,154 Level FlightAware ADS-B
Fri 01:59:06 AM 49.6843 -8.9967 111° Southeast 468 539 36,500  Descending FlightAware UK
Fri 01:59:13 AM 49.6800 -8.9770 111° Southeast 509 586 38,000  Climbing FlightAware ADS-B
Fri 01:59:30 AM 49.6639 -8.9157 111° Southeast 470 541 36,500 -2,571 Descending FlightAware UK
Fri 01:59:48 AM 49.6485 -8.8548 111° Southeast 470 541 36,500 2,368 Level FlightAware UK
Fri 02:00:08 AM 49.6320 -8.7900 111° Southeast 512 589 38,000  Climbing FlightAware ADS-B
Fri 02:00:24 AM 49.6176 -8.7327 111° Southeast 478 550 36,500 -2,647 Descending FlightAware UK
Fri 02:00:42 AM 49.6022 -8.6718 111° Southeast 476 548 36,500 3,103 Level FlightAware UK
Fri 02:00:53 AM 49.5950 -8.6430 111° Southeast 508 585 38,000  Climbing FlightAware ADS-B
Fri 02:01:12 AM 49.5763 -8.5707 111° Southeast 472 543 36,500 -2,432 Descending FlightAware UK
Fri 02:01:30 AM 49.5606 -8.5104 112° Southeast 472 543 36,500 4,286 Level FlightAware UK
Fri 02:01:33 AM 49.5600 -8.5060 112° Southeast 507 583 38,000  Climbing FlightAware ADS-B
Fri 02:01:54 AM 49.5399 -8.4300 112° Southeast 472 543 36,500 -2,308 Descending FlightAware UK
Fri 02:02:12 AM 49.5243 -8.3698 112° Southeast 470 541 36,500 4,737 Level FlightAware UK
Fri 02:02:13 AM 49.5250 -8.3720 112° Southeast 506 582 38,000  Climbing FlightAware ADS-B
Fri 02:02:30 AM 49.5087 -8.3098 112° Southeast 470 541 36,500 -2,571 Descending FlightAware UK
Fri 02:02:48 AM 49.4932 -8.2498 112° Southeast 470 541 36,500 3,214 Level FlightAware UK
Fri 02:02:58 AM 49.4870 -8.2240 112° Southeast 507 583 38,000 200 Climbing FlightAware ADS-B
Fri 02:03:18 AM 49.4673 -8.1497 112° Southeast 472 543 36,600 -1,895 Descending FlightAware UK
Fri 02:03:36 AM 49.4516 -8.0897 112° Southeast 472 543 36,800 5,100 Climbing FlightAware UK
Fri 02:03:38 AM 49.4520 -8.0910 112° Southeast 511 588 38,300 667 Climbing FlightAware ADS-B
Fri 02:03:54 AM 49.4356 -8.0289 112° Southeast 470 541 37,000 -1,941 Descending FlightAware UK
Fri 02:04:12 AM 49.4198 -7.9687 112° Southeast 472 543 37,200 3,931 Climbing FlightAware UK
Fri 02:04:23 AM 49.4120 -7.9380 112° Southeast 510 587 38,900 600 Climbing FlightAware ADS-B
Fri 02:04:42 AM 49.3934 -7.8683 112° Southeast 472 543 37,500 -2,270 Descending FlightAware UK
Fri 02:05:00 AM 49.3774 -7.8081 112° Southeast 476 548 37,500 4,286 Level FlightAware UK
Fri 02:05:03 AM 49.3780 -7.8100 112° Southeast 511 588 39,000  Climbing FlightAware ADS-B
Fri 02:05:18 AM 49.3616 -7.7478 112° Southeast 474 545 37,500 -2,727 Descending FlightAware UK
Fri 02:05:36 AM 49.3456 -7.6875 112° Southeast 474 545 37,500 3,600 Level FlightAware UK
Fri 02:05:43 AM 49.3410 -7.6720 112° Southeast 510 587 39,000  Climbing FlightAware ADS-B
Fri 02:06:00 AM 49.3241 -7.6074 112° Southeast 472 543 37,500 -2,571 Descending FlightAware UK
Fri 02:06:18 AM 49.3063 -7.5483 115° Southeast 474 545 37,500 3,214 Level FlightAware UK
Fri 02:06:28 AM 49.2960 -7.5190 115° Southeast 512 589 39,000  Climbing FlightAware ADS-B
Fri 02:06:48 AM 49.2743 -7.4511 115° Southeast 476 548 37,500 -2,368 Descending FlightAware UK
Fri 02:07:06 AM 49.2558 -7.3924 116° Southeast 476 548 37,500 4,500 Level FlightAware UK
Fri 02:07:08 AM 49.2570 -7.3950 116° Southeast 512 589 39,000  Climbing FlightAware ADS-B
Fri 02:07:24 AM 49.2374 -7.3337 116° Southeast 472 543 37,500 -2,647 Descending FlightAware UK
Fri 02:07:42 AM 49.2192 -7.2748 115° Southeast 474 545 37,500 4,737 Level FlightAware UK
Fri 02:07:43 AM 49.2210 -7.2810 115° Southeast 513 590 39,000  Climbing FlightAware ADS-B
Fri 02:08:00 AM 49.2007 -7.2161 115° Southeast 472 543 37,500 -2,571 Descending FlightAware UK
Fri 02:08:18 AM 49.1822 -7.1573 116° Southeast 474 545 37,500 2,727 Level FlightAware UK
Fri 02:08:33 AM 49.1730 -7.1290 116° Southeast 516 594 39,000  Climbing FlightAware ADS-B
Fri 02:08:48 AM 49.1511 -7.0592 116° Southeast 474 545 37,500 -2,727 Descending FlightAware UK
Fri 02:09:06 AM 49.1323 -7.0002 116° Southeast 474 545 37,500 3,000 Level FlightAware UK
Fri 02:09:18 AM 49.1240 -6.9740 116° Southeast 518 596 39,000  Climbing FlightAware ADS-B
Fri 02:09:42 AM 49.0945 -6.8815 116° Southeast 478 550 37,500  Descending FlightAware UK
Fri 02:09:58 AM 49.0820 -6.8420 116° Southeast 520 598 39,000  Climbing FlightAware ADS-B
Fri 02:10:18 AM 49.0568 -6.7631 116° Southeast 480 552 37,500 -2,368 Descending FlightAware UK
Fri 02:10:36 AM 49.0378 -6.7041 116° Southeast 478 550 37,500 4,500 Level FlightAware UK
Fri 02:10:38 AM 49.0390 -6.7100 116° Southeast 517 595 39,000  Climbing FlightAware ADS-B
Fri 02:10:54 AM 49.0187 -6.6452 116° Southeast 476 548 37,500 -2,647 Descending FlightAware UK
Fri 02:11:12 AM 48.9996 -6.5863 116° Southeast 476 548 37,500 3,103 Level FlightAware UK
Fri 02:11:23 AM 48.9930 -6.5640 116° Southeast 517 595 39,000  Climbing FlightAware ADS-B
Fri 02:11:42 AM 48.9682 -6.4883 116° Southeast 476 548 37,500  Descending FlightAware UK
Fri 02:11:58 AM 48.9570 -6.4550 116° Southeast 517 595 39,000  Climbing FlightAware ADS-B
Fri 02:12:00 AM 48.9492 -6.4298 116° Southeast 474 545 37,500 -4,500 Descending FlightAware UK
Fri 02:12:18 AM 48.9302 -6.3711 116° Southeast 474 545 37,500  Level FlightAware UK
Fri 02:12:36 AM 48.9112 -6.3127 116° Southeast 474 545 37,500 3,600 Level FlightAware UK
Fri 02:12:43 AM 48.9060 -6.2990 116° Southeast 517 595 39,000  Climbing FlightAware ADS-B
Fri 02:13:00 AM 48.8857 -6.2348 116° Southeast 476 548 37,500 -2,571 Descending FlightAware UK
Fri 02:13:18 AM 48.8665 -6.1765 117° Southeast 478 550 37,500 3,214 Level FlightAware UK
Fri 02:13:28 AM 48.8590 -6.1570 117° Southeast 517 595 39,000  Climbing FlightAware ADS-B
Fri 02:13:48 AM 48.8345 -6.0795 117° Southeast 478 550 37,500  Descending FlightAware UK
Fri 02:14:08 AM 48.8150 -6.0210 117° Southeast 517 595 39,000  Climbing FlightAware ADS-B
Fri 02:14:24 AM 48.7960 -5.9633 117° Southeast 474 545 37,500 -2,647 Descending FlightAware UK
Fri 02:14:42 AM 48.7769 -5.9051 117° Southeast 474 545 37,500 3,750 Level FlightAware UK
Fri 02:14:48 AM 48.7720 -5.8930 117° Southeast 516 594 39,000  Climbing FlightAware ADS-B
Fri 02:15:06 AM 48.7512 -5.8277 117° Southeast 478 550 37,500 -2,143 Descending FlightAware UK
Fri 02:15:30 AM 48.7252 -5.7498 117° Southeast 476 548 37,500 3,333 Level FlightAware UK
Fri 02:15:33 AM 48.7240 -5.7490 117° Southeast 515 593 39,000  Climbing FlightAware ADS-B
Fri 02:15:48 AM 48.7057 -5.6920 117° Southeast 476 548 37,500 -2,727 Descending FlightAware UK
Fri 02:16:06 AM 48.6863 -5.6342 117° Southeast 476 548 37,500  Level FlightAware UK
Fri 02:16:24 AM 48.6669 -5.5767 117° Southeast 476 548 37,500  Level FlightAware UK
Fri 02:16:42 AM 48.6475 -5.5190 117° Southeast 474 545 37,500  Level FlightAware UK
Fri 02:17:00 AM 48.6281 -5.4614 117° Southeast 476 548 37,500  Level FlightAware UK
Fri 02:17:18 AM 48.6089 -5.4038 117° Southeast 476 548 37,500  Level FlightAware UK
Fri 02:17:36 AM 48.5893 -5.3457 117° Southeast 478 550 37,500  Level FlightAware UK
Fri 02:17:54 AM 48.5698 -5.2885 117° Southeast 478 550 37,500  Level FlightAware UK
Fri 02:18:12 AM 48.5503 -5.2312 117° Southeast 478 550 37,500  Level FlightAware UK
Fri 02:18:30 AM 48.5307 -5.1741 117° Southeast 476 548 37,500  Level FlightAware UK
Fri 02:18:48 AM 48.5111 -5.1171 117° Southeast 474 545 37,500  Level FlightAware UK
Fri 02:19:06 AM 48.4915 -5.0601 117° Southeast 474 545 37,500 3,000 Level FlightAware UK
Fri 02:19:18 AM 48.4850 -5.0420 117° Southeast 514 592 39,000  Climbing FlightAware ADS-B
Fri 02:19:36 AM 48.4590 -4.9650 117° Southeast 474 545 37,500 -2,500 Descending FlightAware UK
Fri 02:19:54 AM 48.4395 -4.9079 117° Southeast 474 545 37,500 4,091 Level FlightAware UK
Fri 02:19:58 AM 48.4400 -4.9130 117° Southeast 516 594 39,000  Climbing FlightAware ADS-B
Fri 02:20:18 AM 48.4132 -4.8318 117° Southeast 472 543 37,500 -2,368 Descending FlightAware UK
Fri 02:20:36 AM 48.3933 -4.7748 118° Southeast 474 545 37,500 3,600 Level FlightAware UK
Fri 02:20:43 AM 48.3910 -4.7700 118° Southeast 518 596 39,000  Climbing FlightAware ADS-B
Fri 02:21:00 AM 48.3667 -4.6986 118° Southeast 478 550 37,500  Descending FlightAware UK
Fri 02:21:23 AM 48.3470 -4.6460 118° Southeast 519 597 39,000  Climbing FlightAware ADS-B
Fri 02:21:43 AM 48.3198 -4.5643 118° Southeast 480 552 37,500 -2,368 Descending FlightAware UK
Fri 02:22:01 AM 48.2999 -4.5069 118° Southeast 480 552 37,500 3,600 Level FlightAware UK
Fri 02:22:08 AM 48.2960 -4.4990 118° Southeast 518 596 39,000  Climbing FlightAware ADS-B
Fri 02:22:25 AM 48.2730 -4.4305 118° Southeast 480 552 37,500  Descending FlightAware UK
Fri 02:22:43 AM 48.2590 -4.3930 118° Southeast 517 595 39,000  Climbing FlightAware ADS-B
Fri 02:23:01 AM 48.2323 -4.3157 118° Southeast 480 552 37,500  Descending FlightAware UK
Fri 02:23:23 AM 48.2170 -4.2730 118° Southeast 515 593 39,000 804 Climbing FlightAware ADS-B
Fri 02:24:53 AM 48.1170 -3.9930 118° Southeast 513 590 39,000  Level FlightAware ADS-B
Fri 02:25:48 AM 48.0480 -3.8020 118° Southeast 514 592 39,000  Level FlightAware ADS-B
Fri 02:26:33 AM 47.9920 -3.6730 123° Southeast 513 590 39,000  Level FlightAware ADS-B
Fri 02:27:13 AM 47.9370 -3.5600 126° Southeast 514 592 39,000  Level FlightAware ADS-B
Fri 02:27:58 AM 47.8770 -3.4280 124° Southeast 516 594 39,000  Level FlightAware ADS-B
Fri 02:28:33 AM 47.8390 -3.3270 119° Southeast 516 594 39,000  Level FlightAware ADS-B
Fri 02:29:18 AM 47.7850 -3.1790 118° Southeast 513 590 39,000  Level FlightAware ADS-B
Fri 02:29:53 AM 47.7470 -3.0760 119° Southeast 511 588 39,000  Level FlightAware ADS-B
Fri 02:30:43 AM 47.6860 -2.9110 119° Southeast 511 588 39,000  Level FlightAware ADS-B
Fri 02:31:28 AM 47.6350 -2.7740 119° Southeast 512 589 39,000  Level FlightAware ADS-B
Fri 02:32:08 AM 47.5890 -2.6530 119° Southeast 511 588 39,000  Level FlightAware ADS-B
Fri 02:32:48 AM 47.5430 -2.5280 119° Southeast 509 586 39,000  Level FlightAware ADS-B
Fri 02:33:33 AM 47.4920 -2.3960 120° Southeast 509 586 39,000  Level FlightAware ADS-B
Fri 02:34:13 AM 47.4460 -2.2720 119° Southeast 510 587 39,000  Level FlightAware ADS-B
Fri 02:34:53 AM 47.3990 -2.1500 120° Southeast 510 587 39,000  Level FlightAware ADS-B
Fri 02:35:38 AM 47.3460 -2.0120 120° Southeast 510 587 39,000  Level FlightAware ADS-B
Fri 02:36:18 AM 47.2990 -1.8910 120° Southeast 509 586 39,000  Level FlightAware ADS-B
Fri 02:36:58 AM 47.2530 -1.7700 119° Southeast 506 582 39,000  Level FlightAware ADS-B
Fri 02:37:43 AM 47.2020 -1.6400 120° Southeast 505 581 39,000  Level FlightAware ADS-B
Fri 02:38:23 AM 47.1550 -1.5210 120° Southeast 503 579 39,000  Level FlightAware ADS-B
Fri 02:39:08 AM 47.1020 -1.3840 120° Southeast 503 579 39,000  Level FlightAware ADS-B
Fri 02:39:48 AM 47.0580 -1.2730 120° Southeast 499 574 39,000  Level FlightAware ADS-B
Fri 02:40:33 AM 47.0060 -1.1410 120° Southeast 499 574 39,000  Level FlightAware ADS-B
Fri 02:41:13 AM 46.9590 -1.0220 120° Southeast 505 581 39,000  Level FlightAware ADS-B
Fri 02:41:53 AM 46.9220 -0.8980 114° Southeast 510 587 39,000  Level FlightAware ADS-B
Fri 02:42:38 AM 46.8920 -0.7480 106° East 507 583 39,000  Level FlightAware ADS-B
Fri 02:43:18 AM 46.8670 -0.6150 105° East 507 583 39,000  Level FlightAware ADS-B
Fri 02:43:58 AM 46.8400 -0.4820 106° East 506 582 39,000  Level FlightAware ADS-B
Fri 02:44:43 AM 46.8130 -0.3410 106° East 507 583 39,000  Level FlightAware ADS-B
Fri 02:45:23 AM 46.7870 -0.2110 106° East 509 586 39,000  Level FlightAware ADS-B
Fri 02:46:08 AM 46.7570 -0.0640 107° East 508 585 39,000  Level FlightAware ADS-B
Fri 02:46:48 AM 46.7310 0.0670 106° East 505 581 39,000  Level FlightAware ADS-B
Fri 02:47:28 AM 46.7050 0.1920 107° East 506 582 39,000  Level FlightAware ADS-B
Fri 02:48:13 AM 46.6730 0.3490 106° East 505 581 39,000  Level FlightAware ADS-B
Fri 02:48:53 AM 46.6460 0.4790 107° East 507 583 39,000  Level FlightAware ADS-B
Fri 02:49:33 AM 46.6190 0.6120 106° East 508 585 39,000  Level FlightAware ADS-B
Fri 02:50:18 AM 46.5900 0.7560 106° East 508 585 39,000  Level FlightAware ADS-B
Fri 02:50:58 AM 46.5640 0.8860 106° East 508 585 39,000  Level FlightAware ADS-B
Fri 02:51:43 AM 46.5340 1.0350 106° East 507 583 39,000  Level FlightAware ADS-B
Fri 02:52:23 AM 46.5080 1.1640 106° East 506 582 39,000  Level FlightAware ADS-B
Fri 02:53:08 AM 46.4780 1.3080 107° East 504 580 39,000  Level FlightAware ADS-B
Fri 02:53:48 AM 46.4490 1.4370 108° East 505 581 39,000  Level FlightAware ADS-B
Fri 02:54:43 AM 46.4140 1.5980 107° East 504 580 39,000  Level FlightAware ADS-B
Fri 02:55:28 AM 46.3810 1.7520 107° East 509 586 39,000  Level FlightAware ADS-B
Fri 02:56:08 AM 46.3520 1.8830 108° East 510 587 39,000  Level FlightAware ADS-B
Fri 02:56:53 AM 46.3190 2.0410 107° East 511 588 39,000  Level FlightAware ADS-B
Fri 02:57:38 AM 46.2900 2.1840 106° East 510 587 39,000  Level FlightAware ADS-B
Fri 02:58:18 AM 46.2640 2.3120 106° East 508 585 39,000  Level FlightAware ADS-B
Fri 02:58:58 AM 46.2380 2.4450 106° East 507 583 39,000  Level FlightAware ADS-B
Fri 02:59:43 AM 46.2080 2.5950 106° East 506 582 39,000  Level FlightAware ADS-B
Fri 03:00:22 AM 46.1830 2.7110 107° East 502 578 39,000  Level FlightAware ADS-B
Fri 03:01:07 AM 46.1470 2.8600 109° East 505 581 39,000  Level FlightAware ADS-B
Fri 03:01:47 AM 46.1160 2.9880 109° East 507 583 39,000  Level FlightAware ADS-B
Fri 03:02:27 AM 46.0840 3.1170 110° East 511 588 39,000  Level FlightAware ADS-B
Fri 03:03:12 AM 46.0480 3.2560 110° East 510 587 39,000  Level FlightAware ADS-B
Fri 03:03:52 AM 46.0140 3.3820 111° Southeast 510 587 39,000  Level FlightAware ADS-B
Fri 03:04:37 AM 45.9760 3.5160 112° Southeast 509 586 39,000  Level FlightAware ADS-B
Fri 03:05:17 AM 45.9390 3.6500 112° Southeast 503 579 39,000  Level FlightAware ADS-B
Fri 03:06:02 AM 45.9020 3.7820 112° Southeast 504 580 39,000  Level FlightAware ADS-B
Fri 03:06:42 AM 45.8660 3.9110 112° Southeast 506 582 39,000  Level FlightAware ADS-B
Fri 03:07:22 AM 45.8320 4.0320 112° Southeast 507 583 39,000  Level FlightAware ADS-B
Fri 03:08:07 AM 45.7910 4.1740 112° Southeast 506 582 39,000  Level FlightAware ADS-B
Fri 03:08:47 AM 45.7550 4.3010 112° Southeast 505 581 39,000  Level FlightAware ADS-B
Fri 03:09:27 AM 45.7200 4.4240 112° Southeast 503 579 39,000  Level FlightAware ADS-B
Fri 03:10:12 AM 45.6800 4.5620 112° Southeast 504 580 39,000  Level FlightAware ADS-B
Fri 03:10:52 AM 45.6450 4.6830 112° Southeast 502 578 39,000  Level FlightAware ADS-B
Fri 03:11:37 AM 45.6040 4.8220 113° Southeast 503 579 39,000  Level FlightAware ADS-B
Fri 03:12:17 AM 45.5670 4.9470 113° Southeast 502 578 39,000  Level FlightAware ADS-B
Fri 03:12:57 AM 45.5320 5.0670 113° Southeast 497 572 39,000  Level FlightAware ADS-B
Fri 03:13:42 AM 45.4930 5.1980 113° Southeast 496 571 39,000  Level FlightAware ADS-B
Fri 03:14:22 AM 45.4570 5.3170 113° Southeast 497 572 39,000  Level FlightAware ADS-B
Fri 03:15:07 AM 45.4150 5.4580 113° Southeast 499 574 39,000  Level FlightAware ADS-B
Fri 03:15:47 AM 45.3790 5.5780 113° Southeast 499 574 39,000  Level FlightAware ADS-B
Fri 03:16:32 AM 45.3390 5.7100 113° Southeast 499 574 39,000  Level FlightAware ADS-B
Fri 03:17:12 AM 45.3020 5.8330 113° Southeast 498 573 39,000  Level FlightAware ADS-B
Fri 03:17:52 AM 45.2660 5.9520 113° Southeast 498 573 39,000  Level FlightAware ADS-B
Fri 03:18:37 AM 45.2240 6.0880 114° Southeast 495 570 39,000  Level FlightAware ADS-B
Fri 03:19:17 AM 45.1960 6.2100 108° East 502 578 39,000  Level FlightAware ADS-B
Fri 03:20:02 AM 45.1740 6.3530 102° East 502 578 39,000  Level FlightAware ADS-B
Fri 03:20:42 AM 45.1530 6.4830 103° East 503 579 39,000  Level FlightAware ADS-B
Fri 03:21:17 AM 45.1350 6.5940 103° East 503 579 39,000  Level FlightAware ADS-B
Fri 03:23:00 AM 44.9951 6.8552 127° Southeast  Level Estimated
Fri 03:24:00 AM 44.9133 7.0068 127° Southeast  Level Estimated
Fri 03:24:12 AM 45.0440 7.1550 127° Southeast 500 575 39,000  Level FlightAware ADS-B
Fri 03:24:52 AM 45.0220 7.2830 104° East 500 575 39,000  Level FlightAware ADS-B
Fri 03:25:37 AM 44.9990 7.4200 103° East 500 575 39,000  Level FlightAware ADS-B
Fri 03:27:57 AM 44.9190 7.8590 104° East 501 577 39,000  Level FlightAware ADS-B
Fri 03:28:37 AM 44.8960 7.9840 105° East 499 574 39,000  Level FlightAware ADS-B
Fri 03:29:22 AM 44.8690 8.1230 105° East 497 572 39,000  Level FlightAware ADS-B
Fri 03:29:57 AM 44.8500 8.2250 105° East 495 570 39,000  Level FlightAware ADS-B
Fri 03:30:47 AM 44.8190 8.3860 105° East 491 565 39,000  Level FlightAware ADS-B
Fri 03:31:27 AM 44.7940 8.5100 106° East 490 564 39,000  Level FlightAware ADS-B
Fri 03:32:07 AM 44.7690 8.6360 106° East 490 564 39,000  Level FlightAware ADS-B
Fri 03:32:52 AM 44.7420 8.7730 105° East 488 562 39,000  Level FlightAware ADS-B
Fri 03:33:32 AM 44.7110 8.8860 111° Southeast 484 557 39,000  Level FlightAware ADS-B
Fri 03:34:17 AM 44.6650 9.0140 117° Southeast 483 556 39,000  Level FlightAware ADS-B
Fri 03:34:57 AM 44.6230 9.1270 118° Southeast 483 556 39,000  Level FlightAware ADS-B
Fri 03:35:37 AM 44.5820 9.2410 117° Southeast 483 556 39,000  Level FlightAware ADS-B
Fri 03:36:17 AM 44.5430 9.3450 118° Southeast 484 557 39,000  Level FlightAware ADS-B
Fri 03:37:02 AM 44.4950 9.4760 117° Southeast 484 557 39,000  Level FlightAware ADS-B
Fri 03:37:42 AM 44.4530 9.5880 118° Southeast 485 558 39,000  Level FlightAware ADS-B
Fri 03:38:27 AM 44.3890 9.6930 130° Southeast 481 554 39,000  Level FlightAware ADS-B
Fri 03:39:07 AM 44.3250 9.7810 135° Southeast 481 554 39,000  Level FlightAware ADS-B
Fri 03:40:07 AM 44.2310 9.9100 135° Southeast 483 556 39,000  Level FlightAware ADS-B
Fri 03:40:47 AM 44.1680 9.9960 136° Southeast 483 556 39,000  Level FlightAware ADS-B
Fri 03:41:27 AM 44.1050 10.0820 136° Southeast 482 555 39,000  Level FlightAware ADS-B
Fri 03:42:12 AM 44.0380 10.1720 136° Southeast 482 555 39,000  Level FlightAware ADS-B
Fri 03:42:52 AM 43.9680 10.2670 136° Southeast 479 551 39,000  Level FlightAware ADS-B
Fri 03:43:37 AM 43.8960 10.3640 136° Southeast 478 550 39,000  Level FlightAware ADS-B
Fri 03:44:17 AM 43.8370 10.4410 137° Southeast 479 551 39,000 -880 Level FlightAware ADS-B
Fri 03:44:52 AM 43.7690 10.5120 143° Southeast 485 558 37,900 -2,612 Descending FlightAware ADS-B
Fri 03:45:42 AM 43.6630 10.5860 153° Southeast 493 567 35,300 -2,467 Descending FlightAware ADS-B
Fri 03:46:22 AM 43.5780 10.6270 161° South 489 563 34,200 -1,650 Descending FlightAware ADS-B
Fri 03:47:02 AM 43.4970 10.6650 161° South 484 557 33,100 -847 Descending FlightAware ADS-B
Fri 03:47:47 AM 43.3980 10.7100 162° South 480 552 33,000 -282 Descending FlightAware ADS-B
Fri 03:48:27 AM 43.3190 10.7470 161° South 482 555 32,700 -1,341 Descending FlightAware ADS-B
Fri 03:49:12 AM 43.2190 10.7930 161° South 478 550 31,100 -2,400 Descending FlightAware ADS-B
Fri 03:49:52 AM 43.1350 10.8310 162° South 482 555 29,300 -1,950 Descending FlightAware ADS-B
Fri 03:50:32 AM 43.0570 10.8670 161° South 459 528 28,500 -900 Descending FlightAware ADS-B
Fri 03:51:12 AM 42.9750 10.9040 162° South 429 494 28,100 -565 Descending FlightAware ADS-B
Fri 03:51:57 AM 42.8930 10.9410 162° South 400 460 27,700 -1,000 Descending FlightAware ADS-B
Fri 03:52:42 AM 42.8170 10.9770 161° South 394 453 26,600 -1,694 Descending FlightAware ADS-B
Fri 03:53:22 AM 42.7680 11.0460 134° Southeast 399 459 25,300 -1,624 Descending FlightAware ADS-B
Fri 03:54:07 AM 42.7230 11.1420 123° Southeast 388 447 24,300 -1,341 Descending FlightAware ADS-B
Fri 03:54:47 AM 42.6850 11.2220 123° Southeast 384 442 23,400 -1,200 Descending FlightAware ADS-B
Fri 03:55:27 AM 42.6460 11.3040 123° Southeast 368 423 22,700 -750 Descending FlightAware ADS-B
Fri 03:56:07 AM 42.6100 11.3790 123° Southeast 343 395 22,400 -600 Descending FlightAware ADS-B
Fri 03:56:47 AM 42.5780 11.4470 123° Southeast 329 379 21,900 -1,000 Descending FlightAware ADS-B
Fri 03:57:37 AM 42.5370 11.5310 124° Southeast 322 371 20,900 -1,533 Descending FlightAware ADS-B
Fri 03:58:17 AM 42.5040 11.6010 123° Southeast 321 369 19,600 -1,650 Descending FlightAware ADS-B
Fri 03:58:57 AM 42.4740 11.6640 123° Southeast 309 356 18,700 -1,286 Descending FlightAware ADS-B
Fri 03:59:27 AM 42.4440 11.7030 136° Southeast 304 350 18,100 -1,333 Descending FlightAware ADS-B
Fri 03:59:42 AM 42.4230 11.7090 168° South 293 337 17,700 -1,200 Descending FlightAware ADS-B
Fri 04:00:22 AM 42.3700 11.7150 175° South 294 338 17,000 -1,425 Descending FlightAware ADS-B
Fri 04:01:02 AM 42.3150 11.7250 172° South 284 327 15,800 -1,886 Descending FlightAware ADS-B
Fri 04:01:32 AM 42.2780 11.7090 198° South 280 322 14,800 -2,000 Descending FlightAware ADS-B
Fri 04:01:47 AM 42.2680 11.6860 240° Southwest 276 318 14,300 -1,920 Descending FlightAware ADS-B
Fri 04:01:57 AM 42.2660 11.6700 260° West 274 315 14,000 -1,400 Descending FlightAware ADS-B
Fri 04:02:17 AM 42.2740 11.6400 290° West 261 300 13,600 -1,600 Descending FlightAware ADS-B
Fri 04:02:27 AM 42.2820 11.6290 315° West 259 298 13,200 -1,920 Descending FlightAware ADS-B
Fri 04:02:42 AM 42.3000 11.6210 342° North 259 298 12,800 -1,333 Descending FlightAware ADS-B
Fri 04:03:12 AM 42.3300 11.6430 28° Northeast 260 299 12,200 -1,200 Descending FlightAware ADS-B
Fri 04:03:27 AM 42.3360 11.6660 71° East 264 304 11,900 -960 Descending FlightAware ADS-B
Fri 04:03:37 AM 42.3360 11.6820 90° East 266 306 11,800 -1,200 Descending FlightAware ADS-B
Fri 04:03:52 AM 42.3280 11.7060 114° Southeast 272 313 11,400 -1,300 Descending FlightAware ADS-B
Fri 04:04:37 AM 42.2920 11.7610 131° Southeast 259 298 10,500 -1,286 Descending FlightAware ADS-B
Fri 04:05:02 AM 42.2720 11.7920 131° Southeast 253 291 9,900 -1,527 Descending FlightAware ADS-B
Fri 04:05:32 AM 42.2480 11.8270 133° Southeast 249 287 9,100 -1,700 Descending FlightAware ADS-B
Fri 04:06:02 AM 42.2240 11.8630 132° Southeast 250 288 8,200 -1,636 Descending FlightAware ADS-B
Fri 04:06:27 AM 42.2050 11.8920 131° Southeast 247 284 7,600 -1,636 Descending FlightAware ADS-B
Fri 04:06:57 AM 42.1830 11.9270 130° Southeast 247 284 6,700 -1,745 Descending FlightAware ADS-B
Fri 04:07:22 AM 42.1650 11.9540 132° Southeast 245 282 6,000 -1,650 Descending FlightAware ADS-B
Fri 04:07:37 AM 42.1520 11.9730 133° Southeast 245 282 5,600 -1,333 Descending FlightAware ADS-B
Fri 04:08:07 AM 42.1300 12.0070 131° Southeast 246 283 5,000 -1,091 Descending FlightAware ADS-B
Fri 04:08:32 AM 42.1110 12.0350 132° Southeast 243 280 4,600 -982 Descending FlightAware ADS-B
Fri 04:09:02 AM 42.0880 12.0690 132° Southeast 242 278 4,100 -1,000 Descending FlightAware ADS-B
Fri 04:09:32 AM 42.0660 12.1020 132° Southeast 239 275 3,600 -873 Descending FlightAware ADS-B
Fri 04:09:57 AM 42.0470 12.1280 135° Southeast 232 267 3,300 -450 Descending FlightAware ADS-B
Fri 04:10:12 AM 42.0320 12.1360 158° South 216 249 3,300 -400 Level FlightAware ADS-B
Fri 04:10:42 AM 42.0040 12.1470 164° South 219 252 3,000 -436 Descending FlightAware ADS-B
Fri 04:11:07 AM 41.9790 12.1580 162° South 219 252 2,900 -327 Descending FlightAware ADS-B
Fri 04:11:37 AM 41.9510 12.1700 162° South 200 230 2,700 -764 Descending FlightAware ADS-B
Fri 04:12:02 AM 41.9280 12.1790 164° South 206 237 2,200 -1,091 Descending FlightAware ADS-B
Fri 04:12:32 AM 41.9010 12.1900 163° South 188 216 1,700 -982 Descending FlightAware ADS-B
Fri 04:12:57 AM 41.8830 12.1980 162° South 171 197 1,300 -873 Descending FlightAware ADS-B
Fri 04:13:27 AM 41.8600 12.2080 162° South 150 173 900 -840 Descending FlightAware ADS-B
Fri 04:13:47 AM 41.8480 12.2130 163° South 136 157 600 -400 Descending FlightAware ADS-B
Fri 04:14:12 AM 41.8340 12.2190 162° South 136 157 600  Level FlightAware ADS-B

Login

Don't have an account? Register now (free) for customized features, flight alerts, and more!